CDT,Max TemperatureF,Mean TemperatureF,Min TemperatureF,Max Dew PointF,MeanDew PointF,Min DewpointF,Max Humidity, Mean Humidity, Min Humidity, Max Sea Level PressureIn, Mean Sea Level PressureIn, Min Sea Level PressureIn, Max VisibilityMiles, Mean VisibilityMiles, Min VisibilityMiles, Max Wind SpeedMPH, Mean Wind SpeedMPH, Max Gust SpeedMPH,PrecipitationIn, CloudCover, Events, WindDirDegrees
2013-10-1,82,70,59,59,57,55,94,68,39,29.98,29.89,29.82,10,10,6,14,8,18,0.00,0,,222
2013-10-2,84,72,60,64,58,50,83,63,45,30.03,29.96,29.89,10,10,6,16,7,20,0.00,2,,130
2013-10-3,80,72,64,68,64,61,100,80,51,29.88,29.82,29.77,10,9,2,14,6,17,0.04,3,Rain,172
2013-10-4,80,72,64,70,67,63,100,82,69,29.90,29.82,29.75,10,9,1,17,10,26,0.43,4,Rain,146
2013-10-5,77,62,46,66,43,34,88,62,37,29.94,29.86,29.81,10,10,8,24,12,33,0.01,5,Rain,244
2013-10-6,50,46,42,46,41,34,100,79,58,29.90,29.79,29.75,10,8,2,15,8,21,0.09,7,Rain,264
2013-10-7,73,58,42,46,42,39,93,62,29,30.06,30.00,29.90,10,10,10,18,10,25,0.00,1,,264
2013-10-8,75,62,50,48,45,43,76,56,31,30.09,30.06,30.01,10,10,10,22,10,29,0.00,0,,181
2013-10-9,73,62,50,50,47,45,87,62,36,30.13,30.08,30.05,10,10,10,15,8,21,0.00,0,,152
2013-10-10,75,62,48,54,48,45,87,64,41,30.09,30.02,29.92,10,10,10,15,7,20,0.00,0,,148
2013-10-11,75,64,53,61,57,50,94,74,57,29.93,29.84,29.76,10,10,9,22,10,30,0.00,3,,159
2013-10-12,66,57,44,57,41,32,88,57,28,30.26,30.06,29.81,10,10,5,17,10,26,0.02,1,Rain,285
2013-10-13,64,50,37,39,34,28,87,55,29,30.45,30.36,30.26,10,10,7,9,6,12,0.00,0,,3
2013-10-14,66,52,39,46,36,32,76,52,34,30.36,30.16,29.85,10,10,10,21,10,33,0.00,2,,127
2013-10-15,60,54,48,57,45,39,94,72,54,29.95,29.88,29.79,10,10,2,22,16,31,0.07,8,Rain,245
2013-10-16,51,46,42,43,41,39,87,79,67,30.01,29.97,29.95,10,10,9,16,11,23,0.00,7,,273
2013-10-17,64,52,39,43,37,30,93,65,28,29.96,29.89,29.83,10,10,10,16,7,24,0.00,1,,250
2013-10-18,50,44,37,43,33,27,87,65,40,30.06,30.00,29.94,10,10,10,20,12,26,0.00,3,,287
2013-10-19,59,47,35,34,31,27,87,60,31,29.97,29.87,29.80,10,10,8,23,9,29,0.00,4,,247
2013-10-20,62,50,37,43,38,30,81,62,45,29.91,29.79,29.72,10,10,10,15,6,21,0.00,4,,224
2013-10-21,50,42,35,39,28,21,87,59,37,30.08,30.01,29.92,10,10,10,17,10,25,0.00,5,,294
2013-10-22,42,38,33,37,35,30,93,81,66,30.06,29.95,29.85,10,10,5,15,7,17,0.00,7,Rain,34
2013-10-23,42,35,28,36,30,23,93,77,46,30.14,30.09,30.05,10,9,4,13,7,16,0.00,6,Rain,288
2013-10-24,44,36,28,32,26,19,86,67,45,30.37,30.28,30.14,10,10,9,17,8,26,0.00,4,,297
2013-10-25,55,40,24,28,25,21,86,54,30,30.41,30.27,30.05,10,10,9,20,9,28,0.00,0,,228
2013-10-26,51,42,33,32,27,21,70,49,33,30.15,30.07,29.95,10,10,10,25,14,32,0.00,0,,298
2013-10-27,60,44,28,30,28,23,86,57,31,30.13,30.00,29.88,10,10,9,20,8,23,0.00,0,,210
2013-10-28,57,46,35,37,32,28,81,61,38,30.27,30.15,29.98,10,10,9,17,7,21,0.00,1,,65
2013-10-29,59,50,41,52,42,36,94,76,59,30.27,30.12,30.01,10,9,3,16,10,23,0.00,7,,108
2013-10-30,64,58,53,61,55,52,100,95,88,30.01,29.87,29.65,10,4,0,20,9,28,0.56,8,Fog-Rain,125
2013-10-31,62,52,41,61,45,41,100,91,81,29.64,29.55,29.46,10,7,1,16,11,23,0.03,6,Rain,276